createdAt,value
2022-11-17T00:00:02.204Z,9.79
2022-11-17T00:15:01.850Z,9.72
2022-11-17T00:30:02.551Z,9.58
2022-11-17T00:45:02.230Z,9.68
2022-11-17T01:00:01.888Z,9.72
2022-11-17T01:15:02.541Z,9.68
2022-11-17T01:30:02.187Z,9.68
2022-11-17T01:45:01.835Z,9.64
2022-11-17T02:00:02.502Z,9.65
2022-11-17T02:15:02.184Z,9.6
2022-11-17T02:30:01.917Z,9.62
2022-11-17T02:45:02.569Z,9.71
2022-11-17T03:00:02.206Z,9.48
2022-11-17T03:15:01.887Z,9.45
2022-11-17T03:30:02.549Z,9.51
2022-11-17T03:45:02.280Z,9.45
2022-11-17T04:00:01.925Z,9.29
2022-11-17T04:15:02.568Z,9.39
2022-11-17T04:30:02.281Z,9.27
2022-11-17T04:45:01.976Z,9.22
2022-11-17T05:00:01.663Z,9.19
2022-11-17T05:15:02.356Z,8.98
2022-11-17T05:30:02.508Z,8.95
2022-11-17T05:45:02.159Z,8.89
2022-11-17T06:00:01.800Z,8.89
2022-11-17T06:15:02.436Z,8.68
2022-11-17T06:30:02.219Z,8.65
2022-11-17T06:45:01.888Z,8.62
2022-11-17T07:00:02.573Z,8.61
2022-11-17T07:15:02.263Z,8.61
2022-11-17T07:30:02.143Z,8.48
2022-11-17T07:45:01.890Z,8.61
2022-11-17T08:00:02.572Z,8.59
2022-11-17T08:15:02.333Z,8.59
2022-11-17T08:30:02.053Z,8.6
2022-11-17T08:45:01.757Z,8.64
2022-11-17T09:00:02.517Z,8.49
2022-11-17T09:15:02.222Z,8.54
2022-11-17T09:30:01.921Z,8.65
2022-11-17T09:45:02.583Z,8.83
2022-11-17T10:00:02.241Z,8.73
2022-11-17T10:15:01.958Z,8.67
2022-11-17T10:30:01.752Z,8.78
2022-11-17T10:45:02.393Z,8.89
2022-11-17T11:00:02.111Z,8.97
2022-11-17T11:15:01.808Z,8.84
2022-11-17T11:30:02.488Z,8.93
2022-11-17T11:45:02.131Z,8.99
2022-11-17T12:00:04.506Z,8.95
2022-11-17T12:15:01.729Z,9.15
2022-11-17T12:30:02.393Z,9.35
2022-11-17T12:45:02.086Z,9.44
2022-11-17T13:00:01.795Z,9.64
2022-11-17T13:15:02.460Z,9.67
2022-11-17T13:30:02.139Z,9.73
2022-11-17T13:45:01.843Z,9.73
2022-11-17T14:00:02.543Z,9.76
2022-11-17T14:15:02.211Z,9.78
2022-11-17T14:30:01.895Z,9.84
2022-11-17T14:45:02.553Z,9.8
2022-11-17T15:00:02.247Z,9.86
2022-11-17T15:15:02.021Z,9.75
2022-11-17T15:30:01.921Z,9.67
2022-11-17T15:45:01.728Z,9.69
2022-11-17T16:00:02.399Z,9.63
2022-11-17T16:15:02.089Z,9.44
2022-11-17T16:30:01.847Z,9.46
2022-11-17T16:45:02.555Z,9.57
2022-11-17T17:00:02.211Z,9.43
2022-11-17T17:15:01.874Z,9.5
2022-11-17T17:30:01.651Z,9.48
2022-11-17T17:45:02.350Z,9.48
2022-11-17T18:00:02.072Z,9.44
2022-11-17T18:15:01.756Z,9.36
2022-11-17T18:30:02.483Z,9.23
2022-11-17T18:45:02.103Z,9.46
2022-11-17T19:00:01.796Z,9.35
2022-11-17T19:15:02.413Z,9.12
2022-11-17T19:30:02.111Z,9.13
2022-11-17T19:45:01.807Z,9.32
2022-11-17T20:00:02.425Z,9.07
2022-11-17T20:15:02.130Z,9.05
2022-11-17T20:30:01.776Z,8.96
2022-11-17T20:45:02.442Z,8.94
2022-11-17T21:00:02.081Z,8.91
2022-11-17T21:15:01.725Z,8.88
2022-11-17T21:30:02.419Z,8.79
2022-11-17T21:45:02.175Z,8.71
2022-11-17T22:00:01.849Z,8.71
2022-11-17T22:15:05.084Z,8.62
2022-11-17T22:30:02.359Z,8.67
2022-11-17T22:45:01.983Z,8.49
2022-11-17T23:00:01.855Z,8.4
2022-11-17T23:15:02.527Z,8.29
2022-11-17T23:30:02.233Z,8.21
2022-11-17T23:45:01.877Z,8.18
